Weather observations for the past three days for
Blair Municipal Airport
Metric (Imperial)
Date Time (cdt) Wind (kph) Vis. (km) Weather Sky Cond. Temperature (ºC) Relative Humidity Wind Chill (°C) Heat Index (°C) Pressure Precipitation (cm)
Air Dwpt 6 hour altimeter (cm) sea level (mb) 1 hr 3 hr 6 hr
Max. Min.
06 03:15 N 9 16.09 Fair CLR 6.1 -5.6 43% 4 76.23 0.0
06 02:55 N 9 16.09 Fair CLR 6.3 -5.6 43% 5 76.23 0.0
06 02:35 N 9 16.09 Fair CLR 6.3 -5.5 43% 5 76.2 0.0
06 02:15 N 7 16.09 Fair CLR 6.5 -5.5 42% 5 76.2 0.0
06 01:55 N 7 16.09 Fair CLR 6.8 -5.7 41% 6 76.2 0.0
06 01:35 N 11 16.09 Fair CLR 7.2 -6.1 39% 5 76.2 0.0
06 01:15 N 9 16.09 Fair CLR 7.2 -5.8 39% 6 76.2 0.0
06 00:55 N 11 16.09 Fair CLR 7.4 -6.1 11.8 7.4 38% 6 76.2 0.0
06 00:35 N 11 16.09 Fair CLR 7.5 -6.1 38% 6 76.2 0.0
06 00:15 N 7 16.09 Fair CLR 7.6 -5.7 39% 7 76.15 0.0
05 23:35 N 9 16.09 Fair CLR 8.3 -6 36% 7 76.15 0.0
05 23:15 N 9 16.09 Fair CLR 8.3 -5.9 36% 7 76.12 0.0
05 22:55 N 9 16.09 Fair CLR 8.5 -6 36% 7 76.12 0.0
05 22:35 N 11 16.09 Fair CLR 8.6 -6.1 35% 7 76.12 0.0
05 22:15 N 9 16.09 Fair CLR 8.8 -6.1 35% 8 76.1 0.0
05 21:55 N 9 16.09 Fair CLR 9 -6.1 34% 8 76.1 0.0
05 21:35 N 7 16.09 Fair CLR 9.3 -6.4 33% 9 76.07 0.0
05 21:15 N 13 16.09 Fair CLR 9.8 -6.7 31% 8 76.05 0.0
05 20:55 N 15 16.09 Fair CLR 10.2 -7.1 29% 76.02 0.0
05 20:35 N 19 16.09 Fair CLR 10.5 -7.1 29% 76 0.0
05 20:15 N 24 G 33 16.09 Fair CLR 10.6 -6.8 29% 76 0.0
05 19:55 NW 19 G 28 16.09 Fair CLR 11 -6.3 29% 76 0.0
05 19:35 N 17 G 28 16.09 Fair CLR 11.2 -5.8 30% 75.97 0.0
05 19:15 N 19 16.09 Fair CLR 11.5 -6 29% 75.97 0.0
05 18:55 NW 28 G 33 16.09 Fair CLR 11.8 -6.4 14.2 11.8 28% 75.97 0.0
05 18:35 NW 24 G 33 16.09 Fair CLR 12 -6 28% 75.97 0.0
05 18:15 NW 22 G 35 16.09 Fair CLR 12.1 -6.2 28% 75.95 0.0
05 17:55 N 26 G 39 16.09 Partly Cloudy SCT070 12.3 -6.1 27% 75.95 0.0
05 17:35 NW 26 G 41 16.09 Partly Cloudy SCT070 13.2 -5.2 28% 75.95 0.0
05 17:15 N 22 G 30 16.09 Partly Cloudy SCT070 13.5 -5.2 27% 75.92 0.0
05 16:55 NW 22 G 33 16.09 Partly Cloudy SCT070 13.2 -5.8 26% 75.92 0.0
05 16:35 NW 17 G 35 16.09 Partly Cloudy SCT070 13.4 -4.9 28% 75.92 0.0
05 16:15 NW 24 G 31 16.09 Partly Cloudy SCT070 13.3 -5.7 26% 75.95 0.0
05 15:35 N 20 G 28 16.09 Mostly Cloudy BKN070 13.1 -4.7 29% 75.97 0.0
05 15:15 NW 19 G 39 16.09 Partly Cloudy SCT070 13.5 -4.8 28% 75.97 0.0
05 14:55 N 24 G 35 16.09 Partly Cloudy SCT070 13.4 -4.3 29% 75.97 0.0
05 14:35 NW 26 G 39 16.09 Partly Cloudy SCT070 13.7 -4.1 29% 75.97 0.0
05 14:15 NW 17 G 26 16.09 Partly Cloudy SCT070 14.1 -3.4 30% 76 0.0
05 13:55 N 20 G 26 16.09 Partly Cloudy SCT070 SCT085 13.7 -3.9 29% 76 0.0
05 13:35 NW 24 16.09 Mostly Cloudy BKN085 13.5 -4.4 29% 76.02 0.0
05 13:15 NW 17 G 35 16.09 Partly Cloudy SCT085 13.1 -4.3 30% 76.02 0.0
05 12:55 N 26 G 33 16.09 Fair CLR 13.4 -3.8 13.4 7.5 30% 76.02 0.0
05 12:35 NW 22 G 30 16.09 Partly Cloudy SCT065 13.3 -3.3 32% 76.02 0.0
05 12:15 NW 11 16.09 Partly Cloudy SCT065 12.4 -2.7 35% 76.02 0.0
05 11:55 N 17 16.09 Fair CLR 12.2 -2.3 37% 76.05 0.0
05 11:35 Calm 16.09 Fair CLR 11 -2.2 40% 76.05 0.0
05 11:15 NW 6 16.09 Fair CLR 10.5 -1.7 43% 76.02 0.0
05 10:55 N 9 16.09 Partly Cloudy SCT120 10 -1.1 46% 9 76.02 0.0
05 10:15 NW 13 16.09 Fair CLR 9 -0.4 52% 7 76.02 0.0
05 09:55 N 15 16.09 Partly Cloudy SCT100 8.9 0.3 55% 7 76 0.0
05 09:35 N 13 16.09 Mostly Cloudy BKN100 8.7 0.4 56% 7 76 0.0
05 09:15 NW 11 16.09 Mostly Cloudy BKN110 8 1.3 63% 6 76 0.0
05 08:55 Calm 16.09 Mostly Cloudy BKN120 7.6 1.8 67% 76 0.0
05 08:35 W 6 16.09 Overcast OVC120 7.6 1.7 67% 75.97 0.0
05 08:15 Calm 16.09 Mostly Cloudy BKN120 7.6 1.3 65% 75.95 0.0
05 07:55 Calm 16.09 Partly Cloudy SCT120 8 0.7 60% 75.9 0.0
05 07:35 NW 7 16.09 Fair CLR 8 -0.6 55% 7 75.87 0.0
05 07:15 N 7 16.09 Fair CLR 7.8 -0.6 56% 7 75.84 0.0
05 06:55 N 9 16.09 Fair CLR 7.5 -0.1 9 6.9 59% 6 75.79 0.0 0.03
05 06:35 N 7 16.09 Fair CLR 8 -0.8 54% 7 75.79 0.0
05 06:15 Calm 16.09 Fair CLR 7 1.8 70% 75.79 0.0
05 05:55 Calm 16.09 Fair CLR 7.2 2.2 71% 75.82 0.0
05 05:35 Calm 16.09 Fair CLR 7.3 2.5 72% 75.82 0.0
05 05:15 Calm 16.09 Fair CLR 8 0.8 61% 75.82 0.0
05 04:55 NW 6 16.09 Fair CLR 8.2 0.4 58% 75.82 0.0
05 04:35 N 9 16.09 Fair CLR 7.9 1.2 63% 7 75.77 0.0
05 04:15 NW 6 16.09 Fair CLR 8 3.1 71% 75.77 0.0
05 03:55 Calm 16.09 Fair CLR 8 3.5 74% 75.77 0.0 0.03 0.03
05 03:35 NW 6 16.09 Fair CLR 8 3.9 76% 75.74 0.0
05 03:15 Calm 16.09 Partly Cloudy SCT110 8.3 3.4 72% 75.74 0.0
05 02:55 NW 6 16.09 Mostly Cloudy BKN110 8.6 3.3 70% 75.69 0.0
05 02:35 Calm 16.09 Mostly Cloudy BKN095 8.8 3.2 68% 75.72 0.0
05 02:15 NW 6 16.09 Mostly Cloudy SCT095 BKN120 8.7 3.8 72% 75.69 0.0
05 01:55 Calm 16.09 Overcast OVC095 8.8 4.4 74% 75.67 0.0
05 01:35 N 6 16.09 Overcast SCT060 SCT080 OVC095 8.7 4.4 75% 75.69 0.0
05 01:15 Calm 16.09 Light Rain OVC080 8.4 4.6 77% 75.72 0.0
05 00:55 N 11 16.09 Rain BKN080 OVC090 8.9 3.8 18.6 8.2 71% 7 75.69 0.0 0.05 0.1
05 00:35 NW 6 16.09 Light Rain SCT060 SCT075 OVC090 8.4 5 79% 75.72 0.0 0.03
05 00:15 NE 13 16.09 Light Rain SCT047 BKN060 OVC075 8.7 4 73% 7 75.64 0.0 0.03
04 23:55 N 9 16.09 Light Rain OVC075 9.4 3.1 65% 8 75.72 0.0 0.05
04 23:15 N 15 16.09 Light Rain SCT075 OVC085 11 0.4 48% 75.69 0.0
04 22:55 N 19 16.09 Light Rain SCT075 BKN085 OVC110 11.7 -0.7 43% 75.72 0.0
04 22:35 N 20 G 33 16.09 Overcast OVC120 12.1 -1.4 39% 75.67 0.0
04 22:15 N 24 G 30 16.09 Overcast SCT090 OVC120 12.5 -1.6 38% 75.67 0.0
04 21:55 N 28 G 44 16.09 Mostly Cloudy SCT090 BKN120 12.7 -2.4 35% 75.62 0.0
04 21:35 N 31 G 44 16.09 Partly Cloudy SCT120 13 -1.5 37% 75.62 0.0
04 21:15 N 26 G 44 16.09 Partly Cloudy SCT110 13.2 -2.1 35% 75.59 0.0
04 20:55 N 37 G 46 16.09 Partly Cloudy and Breezy SCT120 13.6 -2 34% 75.59 0.0
04 20:35 N 35 16.09 Partly Cloudy and Breezy SCT120 13.8 -0.9 37% 75.57 0.0
04 20:15 N 39 G 50 16.09 Partly Cloudy and Breezy SCT120 14.7 -1.3 34% 75.51 0.0
04 19:55 N 28 G 46 16.09 Partly Cloudy SCT120 15.6 -1.5 31% 75.54 0.0
04 19:35 N 43 G 56 16.09 Partly Cloudy and Windy SCT120 16.5 -1.8 29% 75.49 0.0
04 19:15 N 35 G 48 16.09 Partly Cloudy and Breezy SCT120 17.6 -2 26% 75.46 0.0
04 18:55 N 37 G 48 16.09 Fair and Breezy CLR 18.7 -1.5 25.9 18.7 26% 75.44 0.0
04 18:35 N 30 G 41 16.09 Fair CLR 19.5 -0.5 26% 75.41 0.0
04 18:15 N 31 G 43 16.09 Fair CLR 20.4 -0.5 25% 75.39 0.0
04 17:55 N 39 G 48 16.09 Fair and Breezy CLR 21.3 -0.7 23% 75.36 0.0
04 17:35 N 35 G 50 16.09 Fair and Breezy CLR 21.7 -0.5 23% 75.34 0.0
04 17:15 N 30 G 43 16.09 Fair CLR 22.6 0.1 23% 75.31 0.0
04 16:55 N 30 G 39 16.09 Fair CLR 23.1 0.5 22% 75.29 0.0
04 16:35 NW 30 G 44 16.09 Fair CLR 23.8 1.2 23% 75.29 0.0
04 16:15 N 26 G 39 16.09 Fair CLR 24 0.7 22% 25 75.26 0.0
04 15:55 NW 22 G 41 16.09 Fair CLR 24.1 1.4 23% 25 75.23 0.0
04 15:35 NW 28 G 44 16.09 Fair CLR 24.2 2.3 24% 25 75.23 0.0
04 14:55 N 24 G 39 16.09 Fair CLR 24.7 4.5 27% 25 75.23 0.0
04 14:35 N 20 G 33 16.09 Fair CLR 24.9 5.5 29% 25 75.21 0.0
04 14:15 N 26 G 39 16.09 Fair CLR 24.7 5.3 29% 25 75.21 0.0
04 13:55 N 30 G 35 16.09 Fair CLR 25 5.1 28% 25 75.18 0.0
04 13:35 NW 22 G 35 16.09 Fair CLR 24.9 4.5 27% 25 75.18 0.0
04 13:15 NW 28 G 41 16.09 Fair CLR 25.4 3.2 24% 25 75.16 0.0
04 12:55 NW 26 G 37 16.09 Partly Cloudy SCT090 26 2.8 26 9.8 22% 26 75.16 0.0
04 12:35 W 17 G 30 16.09 Fair CLR 25.5 2.8 23% 25 75.16 0.0
04 12:15 NW 20 G 33 16.09 Fair CLR 25.1 3.4 25% 25 75.16 0.0
04 11:55 NW 19 G 33 16.09 Fair CLR 24.4 3.1 25% 25 75.21 0.0
04 11:35 W 26 G 39 16.09 Fair CLR 24 2.6 25% 25 75.21 0.0
04 11:15 W 20 G 28 16.09 Fair CLR 23.8 3.5 27% 75.21 0.0
04 10:55 SW 19 16.09 Fair CLR 23.1 4 29% 75.18 0.0
04 10:35 W 13 16.09 Fair CLR 21.7 3.9 31% 75.18 0.0
04 10:15 W 15 16.09 Fair CLR 21.1 3.4 31% 75.16 0.0
04 09:55 W 15 16.09 Fair CLR 20.5 3 32% 75.16 0.0
04 09:35 W 13 16.09 Fair CLR 19 3.5 36% 75.21 0.0
04 09:15 W 9 16.09 Fair CLR 17.9 3.3 38% 75.21 0.0
04 08:55 W 13 16.09 Fair CLR 16.6 3.3 41% 75.21 0.0
04 08:35 W 13 16.09 Fair CLR 15 4.1 48% 75.21 0.0
04 08:15 W 17 16.09 Fair CLR 14.1 3.1 48% 75.21 0.0
04 07:55 W 9 16.09 Fair CLR 13.2 3.8 53% 75.21 0.0
04 07:35 W 9 16.09 Fair CLR 12.7 3 52% 75.21 0.0
04 07:15 Calm 16.09 Fair CLR 11.9 2.6 53% 75.18 0.0
04 06:55 Calm 16.09 Fair CLR 10.6 2.6 15.3 9.6 58% 75.18 0.0
04 06:35 SW 6 16.09 Fair CLR 11.4 2.5 55% 75.18 0.0
04 06:15 SW 7 16.09 Fair CLR 11.3 2.5 55% 75.21 0.0
04 05:55 W 6 16.09 Fair CLR 12.4 2.3 50% 75.21 0.0
04 05:35 Calm 16.09 Fair CLR 12.4 2.3 50% 75.21 0.0
04 05:15 SW 6 16.09 Fair CLR 11.7 2 52% 75.21 0.0
04 04:55 S 7 16.09 Fair CLR 12.1 2.1 51% 75.21 0.0
04 04:35 Calm 16.09 Fair CLR 12.6 2.2 49% 75.23 0.0
04 04:15 Calm 16.09 Fair CLR 12.7 2.2 49% 75.23 0.0
04 03:55 S 6 16.09 Fair CLR 11.7 2.7 54% 75.23 0.0
04 03:35 S 6 16.09 Fair CLR 12.1 2.8 53% 75.29 0.0
04 03:15 S 7 16.09 Fair CLR 11.8 3 55% 75.31 0.0
04 02:55 S 6 16.09 Fair CLR 12.6 3 52% 75.34 0.0
04 02:35 S 6 16.09 Fair CLR 13.1 3 51% 75.34 0.0
04 02:15 S 7 16.09 Fair CLR 13.7 2.5 47% 75.36 0.0
04 01:55 Calm 16.09 Fair CLR 13.8 2.4 46% 75.41 0.0
04 01:35 S 6 16.09 Fair CLR 14.1 2.5 46% 75.41 0.0
04 01:15 Calm 16.09 Fair CLR 15.1 2.2 42% 75.44 0.0
04 00:55 Calm 16.09 Fair CLR 15.2 2.1 22.8 14.3 41% 75.46 0.0
04 00:35 S 6 16.09 Fair CLR 14.4 2.2 44% 75.49 0.0
04 00:15 Calm 16.09 Fair CLR 16.1 1.6 38% 75.49 0.0
03 23:55 Calm 16.09 Fair CLR 15 1.3 40% 75.51 0.0
03 23:35 Calm 16.09 Fair CLR 17 0.8 34% 75.54 0.0
03 23:15 Calm 16.09 Fair CLR 16.2 1.1 36% 75.54 0.0
03 22:55 Calm 16.09 Fair CLR 16.9 0.9 34% 75.57 0.0
03 22:35 Calm 16.09 Fair CLR 18.3 0.4 30% 75.59 0.0
03 22:15 Calm 16.09 Fair CLR 17.2 0.8 33% 75.59 0.0
03 21:55 Calm 16.09 Fair CLR 18.2 0.9 31% 75.59 0.0
03 21:35 Calm 16.09 Fair CLR 17.3 1.5 35% 75.62 0.0
03 21:15 Calm 16.09 Fair CLR 18.2 1.2 32% 75.62 0.0
03 20:55 Calm 16.09 Fair CLR 20.4 0.4 26% 75.62 0.0
03 20:35 Calm 16.09 Fair CLR 20 0.5 27% 75.62 0.0
03 20:15 Calm 16.09 Fair CLR 21.2 0.1 25% 75.62 0.0
03 19:55 Calm 16.09 Fair CLR 21.7 0.1 24% 75.64 0.0
03 19:35 W 7 16.09 Fair CLR 22.1 0.1 23% 75.64 0.0
03 19:15 W 7 16.09 Fair CLR 22.5 0.7 24% 75.64 0.0
03 18:55 W 9 16.09 Fair CLR 22.8 -0.1 23.7 20.5 22% 75.67 0.0
03 18:35 W 13 16.09 Fair CLR 23.1 0.2 22% 75.67 0.0
03 18:15 W 9 16.09 Fair CLR 23.4 0.2 22% 75.67 0.0
03 17:55 W 7 16.09 Fair CLR 23.5 0 21% 75.67 0.0
03 17:35 W 15 16.09 Fair CLR 23.6 0.3 21% 75.69 0.0
03 17:15 NW 6 16.09 Fair CLR 23.4 0.3 22% 75.69 0.0
03 16:55 NW 22 16.09 Fair CLR 23.3 0.2 22% 75.69 0.0
03 16:35 NW 11 16.09 Fair CLR 23.6 1 23% 75.72 0.0
03 16:15 NW 17 16.09 Fair CLR 23.3 0.2 22% 75.74 0.0
03 15:55 N 9 16.09 Fair CLR 22.8 0.3 23% 75.74 0.0
03 15:35 W 17 16.09 Fair CLR 22.7 -0.1 22% 75.77 0.0
03 15:15 NW 13 16.09 Fair CLR 22.8 1.5 25% 75.79 0.0
03 14:55 NW 15 G 26 16.09 Fair CLR 22.1 0.9 25% 75.79 0.0
03 14:35 NW 15 16.09 Fair CLR 21.7 1.1 26% 75.82 0.0
03 14:15 NW 9 G 26 16.09 Fair CLR 21.3 0.8 26% 75.84 0.0
03 13:55 NW 17 16.09 Fair CLR 21.7 0.7 25% 75.84 0.0
03 13:35 N 11 16.09 Fair CLR 21.3 1.3 27% 75.87 0.0
03 13:15 N 19 16.09 Fair CLR 20.7 0.6 26% 75.9 0.0
03 12:55 N 19 16.09 Fair CLR 20.4 0.8 21.1 11.8 27% 75.9 0.0
03 12:35 N 19 G 30 16.09 Fair CLR 21.1 1.5 27% 75.9 0.0
03 12:15 NW 17 G 28 16.09 Fair CLR 20 0.6 27% 75.92 0.0
03 11:55 NW 15 G 30 16.09 Fair CLR 20.3 1.5 29% 75.92 0.0
03 11:35 N 19 16.09 Fair CLR 20 1.6 30% 75.92 0.0
03 11:15 N 22 G 28 16.09 Fair CLR 19.3 0.7 29% 75.92 0.0
03 10:55 N 15 16.09 Fair CLR 18.6 2.2 34% 75.92 0.0
03 10:35 N 15 G 26 16.09 Fair CLR 18.3 2.4 35% 75.9 0.0
03 10:15 N 15 16.09 Fair CLR 17.5 2.5 37% 75.9 0.0
03 09:55 NW 11 16.09 Fair CLR 16.5 3 41% 75.9 0.0
03 09:35 NW 13 16.09 Fair CLR 15 2.3 43% 75.9 0.0
03 09:15 NW 11 16.09 Fair CLR 14.6 1.7 42% 75.84 0.0
03 08:55 NW 9 16.09 Fair CLR 14.4 1 40% 75.87 0.0
03 08:35 W 7 16.09 Fair CLR 14 0.8 41% 75.84 0.0
03 08:15 SW 11 16.09 Fair CLR 13.5 0.5 41% 75.84 0.0
03 07:55 SW 7 16.09 Fair CLR 13 0.2 42% 75.79 0.0
03 07:35 SW 17 16.09 Fair CLR 12 0.2 45% 75.82 0.0
03 07:15 SW 17 16.09 Fair CLR 12.1 -0.4 42% 75.79 0.0
03 06:55 SW 17 16.09 Fair CLR 12 -0.9 14.2 10.9 41% 75.79 0.0
03 06:35 SW 17 16.09 Fair CLR 11.9 -1.4 40% 75.79 0.0
03 06:15 SW 17 16.09 Fair CLR 11.6 -1.6 40% 75.77 0.0
03 05:35 W 13 16.09 Fair CLR 12 -1.6 39% 75.79 0.0
03 05:15 W 11 16.09 Fair CLR 11.7 -1 42% 75.84 0.0
03 04:55 W 15 16.09 Fair CLR 12.7 -1.4 38% 75.84 0.0
03 04:35 SW 20 16.09 Fair CLR 13 -1.5 37% 75.77 0.0
03 04:15 SW 24 G 35 16.09 Fair CLR 13 -1.6 37% 75.77 0.0
03 03:55 SW 20 G 33 16.09 Fair CLR 13.2 -1.9 35% 75.79 0.0
03 03:35 SW 26 G 35 16.09 Fair CLR 13.1 -2 35% 75.79 0.0
Date Time (cdt) Wind (kph) Vis. (km) Weather Sky Cond. Air Dwpt Max. Min. Relative Humidity Wind Chill (°C) Heat Index (°C) altimeter (cm) sea level (mb) 1 hr 3 hr 6 hr
6 hour
Temperature (ºC) Pressure Precipitation (cm)